Cyprus Cement — C6UP5 — position and weather

sailwx.info

Track history (hours):
 
Tides and Currents Weather Stations Pressure Air Temp Water Temp Dewpoint Dewpoint Depression Visibility Wind Speed Wind Dir Waves Ship Positions

Cyprus Cement

Last reported at 2015-Jul-06 03:33 UTC. Time now 2015-Jul-06 15:37 UTC.
Position N 54°42' E 020°28'.

Length 97 m; draft 7.2 m.

Type: Cargo ship. MMSI: 311988000.

Date/timePositionNaut miles runAvg speedWind from/ knotsBaromVisibWave heightAir tempDewpointWater temp
2015-Jul-06 03:33N 54°42' E 020°28'0 0.0
2015-Jul-06 02:30N 54°42' E 020°28'0 0.0
2015-Jul-06 00:24N 54°42' E 020°28'0 0.0
2015-Jul-05 23:30N 54°42' E 020°28'3 0.4
2015-Jul-05 16:29N 54°41' E 020°23'6 6.6
2015-Jul-05 15:33N 54°41' E 020°12'7 6.6
2015-Jul-05 14:31N 54°38' E 020°01'6 6.5
2015-Jul-05 13:33N 54°39' E 019°51'1111.5
2015-Jul-05 12:33N 54°46' E 019°35'1211.8
2015-Jul-05 11:33N 54°58' E 019°32'1211.7
2015-Jul-05 10:33N 55°09' E 019°31'1311.7
2015-Jul-05 09:28N 55°22' E 019°29'1112.1
2015-Jul-05 08:33N 55°33' E 019°27'1211.8
2015-Jul-05 07:33N 55°45' E 019°25'3511.7
2015-Jul-05 04:33N 56°20' E 019°20'110 2.7
2015-Jul-03 11:06N 55°51' E 016°09'712.0
2015-Jul-03 10:33N 55°48' E 015°58'1312.7
2015-Jul-03 09:33N 55°42' E 015°38'1312.6
2015-Jul-03 08:33N 55°36' E 015°19'1212.4
2015-Jul-03 07:33N 55°30' E 014°60'1212.3
2015-Jul-03 06:33N 55°24' E 014°41'1212.3
2015-Jul-03 05:33N 55°15' E 014°26'1111.1
2015-Jul-03 04:33N 55°10' E 014°09'1212.2
2015-Jul-03 03:33N 55°12' E 013°48'1212.3
2015-Jul-03 02:33N 55°13' E 013°26'1212.1
2015-Jul-03 01:34N 55°14' E 013°05'1212.0
2015-Jul-03 00:33N 55°16' E 012°44'10 9.7
2015-Jul-02 23:34N 55°26' E 012°40'1111.3
2015-Jul-02 22:33N 55°35' E 012°51'6 6.2
2015-Jul-02 21:31N 55°38' E 013°01'0 0.0
2015-Jul-02 20:31N 55°38' E 013°01'0 0.0
2015-Jul-02 19:31N 55°38' E 013°01'0 0.0
2015-Jul-02 18:31N 55°38' E 013°01'0 0.0
2015-Jul-02 17:31N 55°38' E 013°01'0 0.0
2015-Jul-02 16:31N 55°38' E 013°01'0 0.0
2015-Jul-02 15:31N 55°38' E 013°01'0 0.0
2015-Jul-02 14:28N 55°38' E 013°01'0 0.0
2015-Jul-02 13:31N 55°38' E 013°01'0 0.0
2015-Jul-02 12:31N 55°38' E 013°01'0 0.0
2015-Jul-02 11:31N 55°38' E 013°01'0 0.0
2015-Jul-02 10:31N 55°38' E 013°01'0 0.0
2015-Jul-02 09:31N 55°38' E 013°01'0 0.0
2015-Jul-02 08:31N 55°38' E 013°01'0 0.0
2015-Jul-02 07:31N 55°38' E 013°01'0 0.0
2015-Jul-02 06:31N 55°38' E 013°01'0 0.0
2015-Jul-02 05:31N 55°38' E 013°01'0 0.0
2015-Jul-02 04:31N 55°38' E 013°01'0 0.0
2015-Jul-02 03:31N 55°38' E 013°01'0 0.0
2015-Jul-02 02:31N 55°38' E 013°01'0 0.0
2015-Jul-02 01:28N 55°38' E 013°01'0 0.0
2015-Jul-02 00:31N 55°38' E 013°01'0 0.0
2015-Jul-01 23:31N 55°38' E 013°01'0 0.2
2015-Jul-01 22:33N 55°38' E 013°01'6 6.0
2015-Jul-01 21:33N 55°35' E 012°51'9 9.3
2015-Jul-01 20:33N 55°27' E 012°43'9 9.5
2015-Jul-01 19:33N 55°18' E 012°44'1111.4
2015-Jul-01 18:33N 55°15' E 013°04'1211.8
2015-Jul-01 17:33N 55°15' E 013°24'1212.1
2015-Jul-01 16:33N 55°14' E 013°46'1712.1
2015-Jul-01 15:08N 55°13' E 014°16'1911.8
2015-Jul-01 13:33N 55°27' E 014°37'1211.8
2015-Jul-01 12:33N 55°33' E 014°55'1211.9
2015-Jul-01 11:33N 55°39' E 015°14'1212.0
2015-Jul-01 10:31N 55°45' E 015°33'  
2015-Jun-27 21:06N 55°43' E 015°43'712.0
2015-Jun-27 20:33N 55°40' E 015°32'1212.1
2015-Jun-27 19:33N 55°34' E 015°14'1211.8
2015-Jun-27 18:33N 55°29' E 014°55'1211.5
2015-Jun-27 17:33N 55°23' E 014°38'1211.8
2015-Jun-27 16:33N 55°13' E 014°25'1211.8
2015-Jun-27 15:30N 55°04' E 014°12'5911.3
2015-Jun-27 10:18N 54°42' E 012°37'1311.2
2015-Jun-27 09:10N 54°35' E 012°19'711.6
2015-Jun-27 08:33N 54°28' E 012°15'1010.3
2015-Jun-27 07:33N 54°24' E 011°58'1111.3
2015-Jun-27 06:33N 54°27' E 011°39'1111.5
2015-Jun-27 05:33N 54°32' E 011°22'1110.6
2015-Jun-27 04:33N 54°35' E 011°04'1111.1
2015-Jun-27 03:33N 54°34' E 010°45'1111.3
2015-Jun-27 02:33N 54°32' E 010°26'1110.5
2015-Jun-27 01:33N 54°25' E 010°13'4 3.7
2015-Jun-27 00:33N 54°22' E 010°08'5 5.0
2015-Jun-26 23:33N 54°21' E 009°60'6 5.6
2015-Jun-26 22:33N 54°22' E 009°50'7 7.2
2015-Jun-26 21:33N 54°18' E 009°40'7 7.3
2015-Jun-26 20:33N 54°12' E 009°33'8 8.4
2015-Jun-26 19:33N 54°08' E 009°20'8 8.1
2015-Jun-26 18:33N 53°60' E 009°18'8 7.9
2015-Jun-26 17:34N 53°54' E 009°09'2 2.1
2015-Jun-26 16:33N 53°53' E 009°06'1 1.0
2015-Jun-26 15:34N 53°52' E 009°05'10 9.8
2015-Jun-26 14:34N 53°50' E 008°49'1010.1
2015-Jun-26 13:33N 53°57' E 008°36'1110.5
2015-Jun-26 12:33N 53°59' E 008°19'1110.6
2015-Jun-26 11:33N 53°59' E 008°01'1111.0
2015-Jun-26 10:32N 53°56' E 007°42'3410.9
2015-Jun-26 07:23N 53°48' E 006°46'1111.1
2015-Jun-26 06:23N 53°45' E 006°28'8 9.6
2015-Jun-26 05:32N 53°37' E 006°24'1111.0
2015-Jun-26 04:33N 53°33' E 006°41'9 8.9
2015-Jun-26 03:33N 53°27' E 006°51'  
Track history (hours):
 
Tides and Currents Weather Stations Pressure Air Temp Water Temp Dewpoint Dewpoint Depression Visibility Wind Speed Wind Dir Waves Ship Positions

Cyprus Cement

Last reported at 2015-Jul-06 03:33 UTC. Time now 2015-Jul-06 15:37 UTC.
Position N 54°42' E 020°28'.

Length 97 m; draft 7.2 m.

Type: Cargo ship. MMSI: 311988000.

Date/timePositionNaut miles runAvg speedWind from/ knotsBaromVisibWave heightAir tempDewpointWater temp
2015-Jul-06 03:33N 54°42' E 020°28'0 0.0
2015-Jul-06 02:30N 54°42' E 020°28'0 0.0
2015-Jul-06 00:24N 54°42' E 020°28'0 0.0
2015-Jul-05 23:30N 54°42' E 020°28'3 0.4
2015-Jul-05 16:29N 54°41' E 020°23'6 6.6
2015-Jul-05 15:33N 54°41' E 020°12'7 6.6
2015-Jul-05 14:31N 54°38' E 020°01'6 6.5
2015-Jul-05 13:33N 54°39' E 019°51'1111.5
2015-Jul-05 12:33N 54°46' E 019°35'1211.8
2015-Jul-05 11:33N 54°58' E 019°32'1211.7
2015-Jul-05 10:33N 55°09' E 019°31'1311.7
2015-Jul-05 09:28N 55°22' E 019°29'1112.1
2015-Jul-05 08:33N 55°33' E 019°27'1211.8
2015-Jul-05 07:33N 55°45' E 019°25'3511.7
2015-Jul-05 04:33N 56°20' E 019°20'110 2.7
2015-Jul-03 11:06N 55°51' E 016°09'712.0
2015-Jul-03 10:33N 55°48' E 015°58'1312.7
2015-Jul-03 09:33N 55°42' E 015°38'1312.6
2015-Jul-03 08:33N 55°36' E 015°19'1212.4
2015-Jul-03 07:33N 55°30' E 014°60'1212.3
2015-Jul-03 06:33N 55°24' E 014°41'1212.3
2015-Jul-03 05:33N 55°15' E 014°26'1111.1
2015-Jul-03 04:33N 55°10' E 014°09'1212.2
2015-Jul-03 03:33N 55°12' E 013°48'1212.3
2015-Jul-03 02:33N 55°13' E 013°26'1212.1
2015-Jul-03 01:34N 55°14' E 013°05'1212.0
2015-Jul-03 00:33N 55°16' E 012°44'10 9.7
2015-Jul-02 23:34N 55°26' E 012°40'1111.3
2015-Jul-02 22:33N 55°35' E 012°51'6 6.2
2015-Jul-02 21:31N 55°38' E 013°01'0 0.0
2015-Jul-02 20:31N 55°38' E 013°01'0 0.0
2015-Jul-02 19:31N 55°38' E 013°01'0 0.0
2015-Jul-02 18:31N 55°38' E 013°01'0 0.0
2015-Jul-02 17:31N 55°38' E 013°01'0 0.0
2015-Jul-02 16:31N 55°38' E 013°01'0 0.0
2015-Jul-02 15:31N 55°38' E 013°01'0 0.0
2015-Jul-02 14:28N 55°38' E 013°01'0 0.0
2015-Jul-02 13:31N 55°38' E 013°01'0 0.0
2015-Jul-02 12:31N 55°38' E 013°01'0 0.0
2015-Jul-02 11:31N 55°38' E 013°01'0 0.0
2015-Jul-02 10:31N 55°38' E 013°01'0 0.0
2015-Jul-02 09:31N 55°38' E 013°01'0 0.0
2015-Jul-02 08:31N 55°38' E 013°01'0 0.0
2015-Jul-02 07:31N 55°38' E 013°01'0 0.0
2015-Jul-02 06:31N 55°38' E 013°01'0 0.0
2015-Jul-02 05:31N 55°38' E 013°01'0 0.0
2015-Jul-02 04:31N 55°38' E 013°01'0 0.0
2015-Jul-02 03:31N 55°38' E 013°01'0 0.0
2015-Jul-02 02:31N 55°38' E 013°01'0 0.0
2015-Jul-02 01:28N 55°38' E 013°01'0 0.0
2015-Jul-02 00:31N 55°38' E 013°01'0 0.0
2015-Jul-01 23:31N 55°38' E 013°01'0 0.2
2015-Jul-01 22:33N 55°38' E 013°01'6 6.0
2015-Jul-01 21:33N 55°35' E 012°51'9 9.3
2015-Jul-01 20:33N 55°27' E 012°43'9 9.5
2015-Jul-01 19:33N 55°18' E 012°44'1111.4
2015-Jul-01 18:33N 55°15' E 013°04'1211.8
2015-Jul-01 17:33N 55°15' E 013°24'1212.1
2015-Jul-01 16:33N 55°14' E 013°46'1712.1
2015-Jul-01 15:08N 55°13' E 014°16'1911.8
2015-Jul-01 13:33N 55°27' E 014°37'1211.8
2015-Jul-01 12:33N 55°33' E 014°55'1211.9
2015-Jul-01 11:33N 55°39' E 015°14'1212.0
2015-Jul-01 10:31N 55°45' E 015°33'  
2015-Jun-27 21:06N 55°43' E 015°43'712.0
2015-Jun-27 20:33N 55°40' E 015°32'1212.1
2015-Jun-27 19:33N 55°34' E 015°14'1211.8
2015-Jun-27 18:33N 55°29' E 014°55'1211.5
2015-Jun-27 17:33N 55°23' E 014°38'1211.8
2015-Jun-27 16:33N 55°13' E 014°25'1211.8
2015-Jun-27 15:30N 55°04' E 014°12'5911.3
2015-Jun-27 10:18N 54°42' E 012°37'1311.2
2015-Jun-27 09:10N 54°35' E 012°19'711.6
2015-Jun-27 08:33N 54°28' E 012°15'1010.3
2015-Jun-27 07:33N 54°24' E 011°58'1111.3
2015-Jun-27 06:33N 54°27' E 011°39'1111.5
2015-Jun-27 05:33N 54°32' E 011°22'1110.6
2015-Jun-27 04:33N 54°35' E 011°04'1111.1
2015-Jun-27 03:33N 54°34' E 010°45'1111.3
2015-Jun-27 02:33N 54°32' E 010°26'1110.5
2015-Jun-27 01:33N 54°25' E 010°13'4 3.7
2015-Jun-27 00:33N 54°22' E 010°08'5 5.0
2015-Jun-26 23:33N 54°21' E 009°60'6 5.6
2015-Jun-26 22:33N 54°22' E 009°50'7 7.2
2015-Jun-26 21:33N 54°18' E 009°40'7 7.3
2015-Jun-26 20:33N 54°12' E 009°33'8 8.4
2015-Jun-26 19:33N 54°08' E 009°20'8 8.1
2015-Jun-26 18:33N 53°60' E 009°18'8 7.9
2015-Jun-26 17:34N 53°54' E 009°09'2 2.1
2015-Jun-26 16:33N 53°53' E 009°06'1 1.0
2015-Jun-26 15:34N 53°52' E 009°05'10 9.8
2015-Jun-26 14:34N 53°50' E 008°49'1010.1
2015-Jun-26 13:33N 53°57' E 008°36'1110.5
2015-Jun-26 12:33N 53°59' E 008°19'1110.6
2015-Jun-26 11:33N 53°59' E 008°01'1111.0
2015-Jun-26 10:32N 53°56' E 007°42'3410.9
2015-Jun-26 07:23N 53°48' E 006°46'1111.1
2015-Jun-26 06:23N 53°45' E 006°28'8 9.6
2015-Jun-26 05:32N 53°37' E 006°24'1111.0
2015-Jun-26 04:33N 53°33' E 006°41'9 8.9
2015-Jun-26 03:33N 53°27' E 006°51'  

Dump ship's entire track history